createdAt,value
2019-05-18T00:00:08.521Z,22.73
2019-05-18T00:02:37.728Z,22.10
2019-05-18T00:05:08.151Z,22.00
2019-05-18T00:07:36.903Z,21.13
2019-05-18T00:10:06.720Z,19.97
2019-05-18T00:12:35.629Z,22.73
2019-05-18T00:15:06.238Z,21.10
2019-05-18T00:17:34.861Z,18.80
2019-05-18T00:20:04.983Z,18.70
2019-05-18T00:22:33.914Z,19.33
2019-05-18T00:25:02.502Z,23.80
2019-05-18T00:27:31.077Z,19.17
2019-05-18T00:29:59.636Z,20.23
2019-05-18T00:32:28.212Z,18.87
2019-05-18T00:34:56.876Z,19.30
2019-05-18T00:37:25.361Z,19.33
2019-05-18T00:39:53.959Z,17.87
2019-05-18T00:42:22.509Z,19.10
2019-05-18T00:44:51.024Z,20.27
2019-05-18T00:47:19.697Z,19.73
2019-05-18T00:49:48.264Z,18.43
2019-05-18T00:52:17.125Z,20.77
2019-05-18T00:54:45.718Z,19.97
2019-05-18T00:57:14.265Z,20.23
2019-05-18T00:59:42.840Z,18.67
2019-05-18T01:02:11.478Z,18.90
2019-05-18T01:04:40.057Z,19.13
2019-05-18T01:07:08.912Z,19.77
2019-05-18T01:09:37.481Z,20.37
2019-05-18T01:12:06.117Z,18.73
2019-05-18T01:14:34.677Z,18.33
2019-05-18T01:17:03.171Z,19.77
2019-05-18T01:19:32.044Z,21.43
2019-05-18T01:22:00.924Z,21.90
2019-05-18T01:24:29.512Z,20.57
2019-05-18T01:26:58.089Z,20.80
2019-05-18T01:29:26.658Z,20.77
2019-05-18T01:31:55.260Z,20.03
2019-05-18T01:34:23.832Z,20.07
2019-05-18T01:36:52.398Z,19.37
2019-05-18T01:39:20.916Z,20.57
2019-05-18T01:41:49.470Z,21.17
2019-05-18T01:44:18.155Z,20.63
2019-05-18T01:46:46.713Z,22.93
2019-05-18T01:49:18.241Z,22.40
2019-05-18T01:51:46.813Z,22.60
2019-05-18T01:54:15.687Z,20.77
2019-05-18T01:56:44.331Z,22.13
2019-05-18T01:59:12.930Z,24.00
2019-05-18T02:01:41.530Z,22.47
2019-05-18T02:04:10.083Z,19.87
2019-05-18T02:06:38.655Z,22.10
2019-05-18T02:09:09.010Z,20.33
2019-05-18T02:11:37.631Z,22.50
2019-05-18T02:14:06.369Z,21.83
2019-05-18T02:16:35.019Z,23.83
2019-05-18T02:19:03.582Z,23.27
2019-05-18T02:21:32.222Z,23.07
2019-05-18T02:24:00.842Z,21.93
2019-05-18T02:26:29.432Z,20.60
2019-05-18T02:28:58.011Z,21.97
2019-05-18T02:31:26.608Z,20.53
2019-05-18T02:33:55.185Z,21.07
2019-05-18T02:36:23.762Z,21.13
2019-05-18T02:38:52.311Z,17.87
2019-05-18T02:41:20.911Z,22.83
2019-05-18T02:43:49.484Z,26.27
2019-05-18T02:46:18.042Z,22.67
2019-05-18T02:48:49.981Z,22.17
2019-05-18T02:51:17.184Z,20.53
2019-05-18T02:53:45.754Z,20.10
2019-05-18T02:56:14.351Z,20.87
2019-05-18T02:58:42.917Z,20.70
2019-05-18T03:01:11.594Z,19.90
2019-05-18T03:03:40.224Z,20.53
2019-05-18T03:06:08.935Z,22.07
2019-05-18T03:08:37.728Z,21.37
2019-05-18T03:11:06.384Z,20.80
2019-05-18T03:13:35.202Z,20.93
2019-05-18T03:16:03.922Z,20.37
2019-05-18T03:18:32.823Z,19.57
2019-05-18T03:21:01.568Z,20.47
2019-05-18T03:23:30.131Z,19.60
2019-05-18T03:25:58.699Z,20.17
2019-05-18T03:28:27.274Z,19.23
2019-05-18T03:30:55.916Z,21.40
2019-05-18T03:33:29.130Z,20.23
2019-05-18T03:35:54.842Z,19.93
2019-05-18T03:38:23.397Z,22.87
2019-05-18T03:40:52.054Z,20.77
2019-05-18T03:43:20.734Z,20.83
2019-05-18T03:45:49.596Z,20.63
2019-05-18T03:48:18.181Z,20.07
2019-05-18T03:50:46.851Z,22.00
2019-05-18T03:53:18.161Z,20.47
2019-05-18T03:55:45.747Z,20.73
2019-05-18T03:58:14.294Z,20.50
2019-05-18T04:00:43.939Z,21.43
2019-05-18T04:03:12.521Z,20.07
2019-05-18T04:05:41.191Z,20.20
2019-05-18T04:08:09.863Z,19.73
2019-05-18T04:10:38.425Z,18.00
2019-05-18T04:13:07.000Z,18.67
2019-05-18T04:15:35.668Z,19.90
2019-05-18T04:18:04.385Z,21.30
2019-05-18T04:20:33.037Z,21.30
2019-05-18T04:23:01.615Z,19.93
2019-05-18T04:25:30.191Z,19.93
2019-05-18T04:27:59.103Z,18.77
2019-05-18T04:30:27.976Z,19.67
2019-05-18T04:32:56.576Z,19.73
2019-05-18T04:35:25.187Z,22.23
2019-05-18T04:37:53.758Z,21.80
2019-05-18T04:40:22.411Z,24.17
2019-05-18T04:42:50.972Z,23.20
2019-05-18T04:45:19.535Z,23.40
2019-05-18T04:47:49.021Z,21.50
2019-05-18T04:50:17.886Z,22.47
2019-05-18T04:52:46.486Z,22.40
2019-05-18T04:55:15.222Z,21.83
2019-05-18T04:57:43.887Z,22.63
2019-05-18T05:00:12.911Z,23.47
2019-05-18T05:02:41.477Z,22.93
2019-05-18T05:05:10.419Z,23.67
2019-05-18T05:07:39.314Z,22.07
2019-05-18T05:10:08.403Z,23.33
2019-05-18T05:12:36.996Z,21.80
2019-05-18T05:15:05.935Z,22.43
2019-05-18T05:17:34.483Z,20.93
2019-05-18T05:20:18.322Z,22.87
2019-05-18T05:22:34.482Z,20.90
2019-05-18T05:25:03.562Z,25.50
2019-05-18T05:27:32.159Z,25.97
2019-05-18T05:30:00.726Z,24.87
2019-05-18T05:32:29.328Z,22.57
2019-05-18T05:34:57.901Z,22.97
2019-05-18T05:37:26.475Z,26.10
2019-05-18T05:39:55.071Z,27.13
2019-05-18T05:42:23.697Z,24.83
2019-05-18T05:44:52.262Z,24.20
2019-05-18T05:47:21.234Z,25.73
2019-05-18T05:49:49.770Z,24.17
2019-05-18T05:52:18.373Z,21.77
2019-05-18T05:54:46.950Z,25.27
2019-05-18T05:57:15.605Z,21.30
2019-05-18T05:59:44.181Z,21.33
2019-05-18T06:02:12.750Z,22.53
2019-05-18T06:04:41.912Z,22.00
2019-05-18T06:07:10.512Z,21.53
2019-05-18T06:09:39.076Z,19.33
2019-05-18T06:12:07.743Z,22.00
2019-05-18T06:14:36.322Z,21.53
2019-05-18T06:17:08.318Z,19.27
2019-05-18T06:19:35.234Z,18.80
2019-05-18T06:22:03.876Z,17.20
2019-05-18T06:24:32.716Z,16.13
2019-05-18T06:27:01.381Z,16.67
2019-05-18T06:29:29.936Z,16.57
2019-05-18T06:31:58.530Z,16.50
2019-05-18T06:34:27.115Z,15.23
2019-05-18T06:36:56.060Z,14.43
2019-05-18T06:39:24.682Z,13.53
2019-05-18T06:41:53.255Z,14.17
2019-05-18T06:44:21.823Z,12.67
2019-05-18T06:46:50.406Z,12.40
2019-05-18T06:49:18.990Z,12.95
2019-05-18T06:51:47.593Z,11.67
2019-05-18T06:54:16.170Z,10.83
2019-05-18T06:56:44.959Z,9.07
2019-05-18T06:59:16.442Z,9.07
2019-05-18T07:01:45.192Z,8.87
2019-05-18T07:04:13.770Z,8.27
2019-05-18T07:06:42.345Z,8.03
2019-05-18T07:09:14.153Z,8.03
2019-05-18T07:11:41.266Z,7.90
2019-05-18T07:14:23.470Z,8.50
2019-05-18T07:16:40.148Z,7.83
2019-05-18T07:19:09.006Z,8.27
2019-05-18T07:21:38.154Z,7.43
2019-05-18T07:24:06.785Z,8.47
2019-05-18T07:26:35.328Z,7.40
2019-05-18T07:29:05.757Z,8.20
2019-05-18T07:31:34.273Z,7.07
2019-05-18T07:34:02.914Z,6.50
2019-05-18T07:36:31.501Z,6.70
2019-05-18T07:39:00.080Z,6.80
2019-05-18T07:41:28.767Z,5.90
2019-05-18T07:43:57.354Z,6.30
2019-05-18T07:46:25.903Z,5.60
2019-05-18T07:48:54.499Z,5.53
2019-05-18T07:51:36.288Z,5.90
2019-05-18T07:53:54.108Z,4.73
2019-05-18T07:56:22.691Z,4.30
2019-05-18T07:58:51.255Z,4.17
2019-05-18T08:01:20.105Z,4.77
2019-05-18T08:03:48.688Z,4.17
2019-05-18T08:06:17.339Z,4.03
2019-05-18T08:08:45.957Z,4.03
2019-05-18T08:11:14.516Z,3.80
2019-05-18T08:13:43.072Z,3.80
2019-05-18T08:16:11.664Z,3.30
2019-05-18T08:18:40.259Z,3.20
2019-05-18T08:21:08.932Z,3.27
2019-05-18T08:23:37.516Z,3.03
2019-05-18T08:26:06.078Z,3.00
2019-05-18T08:28:34.977Z,3.60
2019-05-18T08:31:03.541Z,3.20
2019-05-18T08:33:32.095Z,3.20
2019-05-18T08:36:00.771Z,3.10
2019-05-18T08:38:29.315Z,3.20
2019-05-18T08:40:57.905Z,3.10
2019-05-18T08:43:26.656Z,2.87
2019-05-18T08:45:55.556Z,2.77
2019-05-18T08:48:24.137Z,2.83
2019-05-18T08:50:52.712Z,2.60
2019-05-18T08:53:21.334Z,3.10
2019-05-18T08:55:49.936Z,2.80
2019-05-18T08:58:18.490Z,3.07
2019-05-18T09:00:47.102Z,3.63
2019-05-18T09:03:15.957Z,3.50
2019-05-18T09:05:44.511Z,2.90
2019-05-18T09:08:13.102Z,3.00
2019-05-18T09:10:41.730Z,3.00
2019-05-18T09:13:10.376Z,3.13
2019-05-18T09:15:38.954Z,3.23
2019-05-18T09:18:07.594Z,3.20
2019-05-18T09:20:36.358Z,3.40
2019-05-18T09:23:04.999Z,3.00
2019-05-18T09:25:34.415Z,3.43
2019-05-18T09:28:03.014Z,2.90
2019-05-18T09:30:31.651Z,2.90
2019-05-18T09:33:00.230Z,3.07
2019-05-18T09:35:28.801Z,3.30
2019-05-18T09:37:57.377Z,3.20
2019-05-18T09:40:26.030Z,3.20
2019-05-18T09:42:54.610Z,2.57
2019-05-18T09:45:23.790Z,2.77
2019-05-18T09:47:52.654Z,2.73
2019-05-18T09:50:21.303Z,2.83
2019-05-18T09:52:49.880Z,2.70
2019-05-18T09:55:18.707Z,2.70
2019-05-18T09:57:47.276Z,2.70
2019-05-18T10:00:16.508Z,2.53
2019-05-18T10:02:45.080Z,2.40
2019-05-18T10:05:13.978Z,2.33
2019-05-18T10:07:42.558Z,2.40
2019-05-18T10:10:11.556Z,2.40
2019-05-18T10:12:40.187Z,2.60
2019-05-18T10:15:10.007Z,2.50
2019-05-18T10:17:38.625Z,2.40
2019-05-18T10:20:09.057Z,2.23
2019-05-18T10:22:53.097Z,2.80
2019-05-18T10:25:08.309Z,2.23
2019-05-18T10:27:36.966Z,2.37
2019-05-18T10:30:07.369Z,2.43
2019-05-18T10:32:35.918Z,2.27
2019-05-18T10:35:07.323Z,2.13
2019-05-18T10:37:35.952Z,2.27
2019-05-18T10:40:09.036Z,2.20
2019-05-18T10:42:37.734Z,2.30
2019-05-18T10:45:07.842Z,2.07
2019-05-18T10:47:36.489Z,2.30
2019-05-18T10:50:06.907Z,2.37
2019-05-18T10:52:35.469Z,2.53
2019-05-18T10:55:05.914Z,2.20
2019-05-18T10:57:34.462Z,2.10
2019-05-18T11:00:04.769Z,2.80
2019-05-18T11:02:33.382Z,2.50
2019-05-18T11:05:01.960Z,2.10
2019-05-18T11:07:30.690Z,2.60
2019-05-18T11:09:59.251Z,2.30
2019-05-18T11:12:27.820Z,2.40
2019-05-18T11:14:56.401Z,2.60
2019-05-18T11:17:24.973Z,2.17
2019-05-18T11:19:53.928Z,2.03
2019-05-18T11:22:22.511Z,2.50
2019-05-18T11:24:51.064Z,2.33
2019-05-18T11:27:19.725Z,2.37
2019-05-18T11:29:48.291Z,2.50
2019-05-18T11:32:16.861Z,2.17
2019-05-18T11:34:45.446Z,2.40
2019-05-18T11:37:13.995Z,2.63
2019-05-18T11:39:42.588Z,2.60
2019-05-18T11:42:11.195Z,2.33
2019-05-18T11:44:39.807Z,2.33
2019-05-18T11:47:08.743Z,2.47
2019-05-18T11:49:37.319Z,2.87
2019-05-18T11:52:06.027Z,2.50
2019-05-18T11:54:34.617Z,2.60
2019-05-18T11:57:03.451Z,2.70
2019-05-18T11:59:32.108Z,2.73
2019-05-18T12:02:00.680Z,2.83
2019-05-18T12:04:29.248Z,2.70
2019-05-18T12:06:57.822Z,2.80
2019-05-18T12:09:26.426Z,3.13
2019-05-18T12:11:55.001Z,2.63
2019-05-18T12:14:23.868Z,2.60
2019-05-18T12:16:52.487Z,3.40
2019-05-18T12:19:21.145Z,3.13
2019-05-18T12:21:49.807Z,2.83
2019-05-18T12:24:18.364Z,3.00
2019-05-18T12:26:46.959Z,2.97
2019-05-18T12:29:15.512Z,3.33
2019-05-18T12:31:44.087Z,3.20
2019-05-18T12:34:13.037Z,2.83
2019-05-18T12:36:41.602Z,2.90
2019-05-18T12:39:10.334Z,3.10
2019-05-18T12:41:39.308Z,3.00
2019-05-18T12:44:08.008Z,3.03
2019-05-18T12:46:36.626Z,2.95
2019-05-18T12:49:05.560Z,2.70
2019-05-18T12:51:34.122Z,3.30
2019-05-18T12:54:02.929Z,2.83
2019-05-18T12:56:31.508Z,3.27
2019-05-18T12:59:00.153Z,2.80
2019-05-18T13:01:28.737Z,3.33
2019-05-18T13:03:57.351Z,2.80
2019-05-18T13:06:26.122Z,3.17
2019-05-18T13:08:54.673Z,3.23
2019-05-18T13:11:23.315Z,3.40
2019-05-18T13:13:52.212Z,3.30
2019-05-18T13:16:20.849Z,3.50
2019-05-18T13:18:49.424Z,3.40
2019-05-18T13:21:18.131Z,3.33
2019-05-18T13:23:46.766Z,3.60
2019-05-18T13:26:15.359Z,3.63
2019-05-18T13:28:43.915Z,3.10
2019-05-18T13:31:12.558Z,2.90
2019-05-18T13:33:41.210Z,3.10
2019-05-18T13:36:09.782Z,3.40
2019-05-18T13:38:38.367Z,3.17
2019-05-18T13:41:06.945Z,3.70
2019-05-18T13:43:35.495Z,3.40
2019-05-18T13:46:04.108Z,3.90
2019-05-18T13:48:32.723Z,3.70
2019-05-18T13:51:01.374Z,3.60
2019-05-18T13:53:29.955Z,3.50
2019-05-18T13:55:58.515Z,3.73
2019-05-18T13:58:27.162Z,4.30
2019-05-18T14:00:55.760Z,3.87
2019-05-18T14:03:24.671Z,4.00
2019-05-18T14:05:53.270Z,3.75
2019-05-18T14:08:21.848Z,3.50
2019-05-18T14:10:50.424Z,4.20
2019-05-18T14:13:18.997Z,3.97
2019-05-18T14:15:47.640Z,4.30
2019-05-18T14:18:16.225Z,4.03
2019-05-18T14:20:44.809Z,4.57
2019-05-18T14:23:13.436Z,4.77
2019-05-18T14:25:42.034Z,4.40
2019-05-18T14:28:10.670Z,4.23
2019-05-18T14:30:58.591Z,3.77
2019-05-18T14:33:27.187Z,4.50
2019-05-18T14:35:55.804Z,4.57
2019-05-18T14:38:24.421Z,4.63
2019-05-18T14:40:52.998Z,4.63
2019-05-18T14:43:21.740Z,4.50
2019-05-18T14:45:50.319Z,4.60
2019-05-18T14:48:18.889Z,4.70
2019-05-18T14:50:47.442Z,4.27
2019-05-18T14:53:16.069Z,4.90
2019-05-18T14:55:44.708Z,5.50
2019-05-18T14:58:13.354Z,5.03
2019-05-18T15:00:41.866Z,4.80
2019-05-18T15:03:10.450Z,5.10
2019-05-18T15:05:39.098Z,5.03
2019-05-18T15:08:07.744Z,5.00
2019-05-18T15:10:36.417Z,5.40
2019-05-18T15:13:05.014Z,5.27
2019-05-18T15:15:33.597Z,5.80
2019-05-18T15:18:02.396Z,5.47
2019-05-18T15:20:31.008Z,5.53
2019-05-18T15:22:59.600Z,4.73
2019-05-18T15:25:28.318Z,5.33
2019-05-18T15:27:56.958Z,5.80
2019-05-18T15:30:25.960Z,5.33
2019-05-18T15:32:54.566Z,5.53
2019-05-18T15:35:23.179Z,5.87
2019-05-18T15:37:51.773Z,5.87
2019-05-18T15:40:20.591Z,5.67
2019-05-18T15:42:49.232Z,5.77
2019-05-18T15:45:18.158Z,5.80
2019-05-18T15:47:46.791Z,5.70
2019-05-18T15:50:16.880Z,6.10
2019-05-18T15:52:45.549Z,6.37
2019-05-18T15:55:14.348Z,6.00
2019-05-18T15:57:42.925Z,5.77
2019-05-18T16:00:11.968Z,5.80
2019-05-18T16:02:40.498Z,5.83
2019-05-18T16:05:10.228Z,6.17
2019-05-18T16:07:39.067Z,6.07
2019-05-18T16:10:08.388Z,6.17
2019-05-18T16:12:37.047Z,5.57
2019-05-18T16:15:09.383Z,6.63
2019-05-18T16:17:39.913Z,6.13
2019-05-18T16:20:08.839Z,6.27
2019-05-18T16:22:37.460Z,6.40
2019-05-18T16:25:07.600Z,6.20
2019-05-18T16:27:36.324Z,6.23
2019-05-18T16:30:10.070Z,6.17
2019-05-18T16:32:38.645Z,6.40
2019-05-18T16:35:09.125Z,5.97
2019-05-18T16:37:37.847Z,6.33
2019-05-18T16:40:07.185Z,6.00
2019-05-18T16:42:35.817Z,6.87
2019-05-18T16:45:06.329Z,7.07
2019-05-18T16:47:34.894Z,6.17
2019-05-18T16:50:04.518Z,6.67
2019-05-18T16:52:33.094Z,7.07
2019-05-18T16:55:01.667Z,7.10
2019-05-18T16:57:30.241Z,6.60
2019-05-18T16:59:58.819Z,7.00
2019-05-18T17:02:31.811Z,7.23
2019-05-18T17:04:57.697Z,6.87
2019-05-18T17:07:26.258Z,7.10
2019-05-18T17:09:54.825Z,7.17
2019-05-18T17:12:23.406Z,32.73
2019-05-18T17:14:51.983Z,19.90
2019-05-18T17:17:20.580Z,39.33
2019-05-18T17:19:49.165Z,9.70
2019-05-18T17:22:17.715Z,11.20
2019-05-18T17:24:46.314Z,20.17
2019-05-18T17:27:14.871Z,14.37
2019-05-18T17:29:43.952Z,8.83
2019-05-18T17:32:12.555Z,7.87
2019-05-18T17:34:41.108Z,8.50
2019-05-18T17:37:10.117Z,7.67
2019-05-18T17:39:38.710Z,8.60
2019-05-18T17:42:07.275Z,7.43
2019-05-18T17:44:35.938Z,8.20
2019-05-18T17:47:04.641Z,7.97
2019-05-18T17:49:33.214Z,8.03
2019-05-18T17:52:01.792Z,8.20
2019-05-18T17:54:30.382Z,8.13
2019-05-18T17:57:08.217Z,8.00
2019-05-18T17:59:29.169Z,7.83
2019-05-18T18:01:57.861Z,8.70
2019-05-18T18:04:26.528Z,7.43
2019-05-18T18:06:55.378Z,6.47
2019-05-18T18:09:23.963Z,7.90
2019-05-18T18:11:52.515Z,7.47
2019-05-18T18:14:21.190Z,8.27
2019-05-18T18:16:49.819Z,8.40
2019-05-18T18:19:18.528Z,9.67
2019-05-18T18:21:47.212Z,9.37
2019-05-18T18:24:15.780Z,8.90
2019-05-18T18:26:44.390Z,9.17
2019-05-18T18:29:12.964Z,11.97
2019-05-18T18:31:41.548Z,22.73
2019-05-18T18:34:10.131Z,38.13
2019-05-18T18:36:38.735Z,35.23
2019-05-18T18:39:08.340Z,37.43
2019-05-18T18:41:37.136Z,41.20
2019-05-18T18:44:05.658Z,44.33
2019-05-18T18:46:34.186Z,40.70
2019-05-18T18:49:02.838Z,36.57
2019-05-18T18:51:31.424Z,37.47
2019-05-18T18:53:59.997Z,31.90
2019-05-18T18:56:28.567Z,28.83
2019-05-18T18:58:57.444Z,27.63
2019-05-18T19:01:26.119Z,28.77
2019-05-18T19:03:54.681Z,27.20
2019-05-18T19:06:23.530Z,31.60
2019-05-18T19:08:52.093Z,32.33
2019-05-18T19:11:20.651Z,35.17
2019-05-18T19:13:49.527Z,42.37
2019-05-18T19:16:18.152Z,44.70
2019-05-18T19:18:46.734Z,40.17
2019-05-18T19:21:15.318Z,38.60
2019-05-18T19:23:43.890Z,41.37
2019-05-18T19:26:12.470Z,42.23
2019-05-18T19:28:41.067Z,44.43
2019-05-18T19:31:10.049Z,42.00
2019-05-18T19:33:38.913Z,35.63
2019-05-18T19:36:07.482Z,30.13
2019-05-18T19:38:36.172Z,28.00
2019-05-18T19:41:04.994Z,25.47
2019-05-18T19:43:33.517Z,23.90
2019-05-18T19:46:02.123Z,21.73
2019-05-18T19:48:30.698Z,19.87
2019-05-18T19:50:59.338Z,18.37
2019-05-18T19:53:27.963Z,19.00
2019-05-18T19:55:56.902Z,16.33
2019-05-18T19:58:25.888Z,16.83
2019-05-18T20:00:54.485Z,15.88
2019-05-18T20:03:23.387Z,15.07
2019-05-18T20:05:51.983Z,12.87
2019-05-18T20:08:20.577Z,12.20
2019-05-18T20:10:49.156Z,13.43
2019-05-18T20:13:17.745Z,12.67
2019-05-18T20:15:46.586Z,14.23
2019-05-18T20:18:15.166Z,16.73
2019-05-18T20:20:43.811Z,18.90
2019-05-18T20:23:12.465Z,20.77
2019-05-18T20:25:41.046Z,21.57
2019-05-18T20:28:22.901Z,22.47
2019-05-18T20:30:39.858Z,21.03
2019-05-18T20:33:08.449Z,19.30
2019-05-18T20:35:37.015Z,17.87
2019-05-18T20:38:05.600Z,19.50
2019-05-18T20:40:34.255Z,18.53
2019-05-18T20:43:02.892Z,18.37
2019-05-18T20:45:31.470Z,17.43
2019-05-18T20:48:00.068Z,17.57
2019-05-18T20:50:28.619Z,20.10
2019-05-18T20:52:57.222Z,29.67
2019-05-18T20:55:25.903Z,28.60
2019-05-18T20:57:54.471Z,25.20
2019-05-18T21:00:23.558Z,26.33
2019-05-18T21:02:52.132Z,25.37
2019-05-18T21:05:20.777Z,23.07
2019-05-18T21:07:49.385Z,20.48
2019-05-18T21:10:19.088Z,17.83
2019-05-18T21:12:47.755Z,18.60
2019-05-18T21:15:18.119Z,18.77
2019-05-18T21:17:46.997Z,17.50
2019-05-18T21:20:15.730Z,16.67
2019-05-18T21:22:44.331Z,17.30
2019-05-18T21:25:12.987Z,18.90
2019-05-18T21:27:41.565Z,17.47
2019-05-18T21:30:10.382Z,19.00
2019-05-18T21:32:38.966Z,19.00
2019-05-18T21:35:08.189Z,18.03
2019-05-18T21:37:37.086Z,16.20
2019-05-18T21:40:07.801Z,17.70
2019-05-18T21:42:36.438Z,18.93
2019-05-18T21:45:06.674Z,15.33
2019-05-18T21:47:35.263Z,14.60
2019-05-18T21:50:05.681Z,14.87
2019-05-18T21:52:34.266Z,16.07
2019-05-18T21:55:02.994Z,14.77
2019-05-18T21:57:31.559Z,17.23
2019-05-18T22:00:00.168Z,22.30
2019-05-18T22:02:28.727Z,20.52
2019-05-18T22:04:57.659Z,20.40
2019-05-18T22:07:26.239Z,25.82
2019-05-18T22:09:55.115Z,24.97
2019-05-18T22:12:23.756Z,23.87
2019-05-18T22:14:52.410Z,26.07
2019-05-18T22:17:20.968Z,25.63
2019-05-18T22:19:49.869Z,24.43
2019-05-18T22:22:18.751Z,23.77
2019-05-18T22:24:47.341Z,20.67
2019-05-18T22:27:15.935Z,19.63
2019-05-18T22:29:44.525Z,18.10
2019-05-18T22:32:13.102Z,18.23
2019-05-18T22:34:41.681Z,17.90
2019-05-18T22:37:10.247Z,18.13
2019-05-18T22:39:38.851Z,17.03
2019-05-18T22:42:07.442Z,17.20
2019-05-18T22:44:36.043Z,19.03
2019-05-18T22:47:04.649Z,17.07
2019-05-18T22:49:33.566Z,17.90
2019-05-18T22:52:02.176Z,18.90
2019-05-18T22:54:30.760Z,19.23
2019-05-18T22:56:59.318Z,19.70
2019-05-18T22:59:27.910Z,18.63
2019-05-18T23:01:56.475Z,18.07
2019-05-18T23:04:25.125Z,19.07
2019-05-18T23:06:53.759Z,17.43
2019-05-18T23:09:22.297Z,17.97
2019-05-18T23:11:50.897Z,15.70
2019-05-18T23:14:19.455Z,15.60
2019-05-18T23:16:48.038Z,15.73
2019-05-18T23:19:16.624Z,16.50
2019-05-18T23:21:45.203Z,15.43
2019-05-18T23:24:13.800Z,16.60
2019-05-18T23:26:42.382Z,15.90
2019-05-18T23:29:11.071Z,16.17
2019-05-18T23:31:39.661Z,15.40
2019-05-18T23:34:08.224Z,15.93
2019-05-18T23:36:36.784Z,15.70
2019-05-18T23:39:06.558Z,14.93
2019-05-18T23:41:35.292Z,14.93
2019-05-18T23:44:04.189Z,14.53
2019-05-18T23:46:33.139Z,14.67
2019-05-18T23:49:10.369Z,14.37
2019-05-18T23:51:31.987Z,15.00
2019-05-18T23:54:00.567Z,15.70
2019-05-18T23:56:29.203Z,15.13
2019-05-18T23:58:57.806Z,15.63
